sensor_id;sensor_type;location;lat;lon;timestamp;P1;durP1;ratioP1;P2;durP2;ratioP2
60060;SDS011;45933;51.336;12.612;2024-03-23T00:55:22;26.73;;;18.70;;
60060;SDS011;45933;51.336;12.612;2024-03-23T00:57:48;27.23;;;19.27;;
60060;SDS011;45933;51.336;12.612;2024-03-23T01:00:13;30.60;;;20.47;;
60060;SDS011;45933;51.336;12.612;2024-03-23T01:02:39;28.73;;;18.80;;
60060;SDS011;45933;51.336;12.612;2024-03-23T01:05:04;28.17;;;19.30;;
60060;SDS011;45933;51.336;12.612;2024-03-23T01:07:29;27.37;;;19.30;;
60060;SDS011;45933;51.336;12.612;2024-03-23T01:09:55;28.77;;;19.60;;
60060;SDS011;45933;51.336;12.612;2024-03-23T01:12:20;26.93;;;19.07;;
60060;SDS011;45933;51.336;12.612;2024-03-23T01:14:45;29.73;;;19.60;;
60060;SDS011;45933;51.336;12.612;2024-03-23T01:17:10;28.80;;;19.55;;
60060;SDS011;45933;51.336;12.612;2024-03-23T01:19:36;29.13;;;19.93;;
60060;SDS011;45933;51.336;12.612;2024-03-23T01:22:01;29.50;;;19.87;;
60060;SDS011;45933;51.336;12.612;2024-03-23T01:24:26;27.87;;;18.50;;
60060;SDS011;45933;51.336;12.612;2024-03-23T01:26:51;26.77;;;18.30;;
60060;SDS011;45933;51.336;12.612;2024-03-23T01:29:16;26.17;;;17.87;;
60060;SDS011;45933;51.336;12.612;2024-03-23T01:31:42;25.27;;;17.42;;
60060;SDS011;45933;51.336;12.612;2024-03-23T01:34:07;25.23;;;17.00;;
60060;SDS011;45933;51.336;12.612;2024-03-23T01:36:32;22.33;;;16.13;;
60060;SDS011;45933;51.336;12.612;2024-03-23T01:38:58;25.67;;;18.03;;
60060;SDS011;45933;51.336;12.612;2024-03-23T01:41:24;25.20;;;17.77;;
60060;SDS011;45933;51.336;12.612;2024-03-23T01:43:49;23.80;;;17.40;;
60060;SDS011;45933;51.336;12.612;2024-03-23T01:46:15;26.58;;;17.38;;
60060;SDS011;45933;51.336;12.612;2024-03-23T01:48:41;27.67;;;19.02;;
60060;SDS011;45933;51.336;12.612;2024-03-23T01:51:06;25.27;;;17.77;;
60060;SDS011;45933;51.336;12.612;2024-03-23T01:53:32;26.77;;;17.47;;
60060;SDS011;45933;51.336;12.612;2024-03-23T01:55:58;27.83;;;18.63;;
60060;SDS011;45933;51.336;12.612;2024-03-23T01:58:23;27.23;;;18.23;;
60060;SDS011;45933;51.336;12.612;2024-03-23T02:00:48;25.37;;;18.53;;
60060;SDS011;45933;51.336;12.612;2024-03-23T02:03:26;25.70;;;17.97;;
60060;SDS011;45933;51.336;12.612;2024-03-23T02:05:53;24.80;;;17.07;;
60060;SDS011;45933;51.336;12.612;2024-03-23T02:08:20;23.47;;;17.00;;
60060;SDS011;45933;51.336;12.612;2024-03-23T02:10:47;22.00;;;15.90;;
60060;SDS011;45933;51.336;12.612;2024-03-23T02:13:14;21.85;;;16.55;;
60060;SDS011;45933;51.336;12.612;2024-03-23T02:15:39;22.37;;;15.50;;
60060;SDS011;45933;51.336;12.612;2024-03-23T02:18:04;23.57;;;16.23;;
60060;SDS011;45933;51.336;12.612;2024-03-23T02:20:30;22.23;;;16.07;;
60060;SDS011;45933;51.336;12.612;2024-03-23T02:22:55;22.83;;;15.33;;
60060;SDS011;45933;51.336;12.612;2024-03-23T02:25:20;19.23;;;13.60;;
60060;SDS011;45933;51.336;12.612;2024-03-23T02:27:45;20.43;;;15.00;;
60060;SDS011;45933;51.336;12.612;2024-03-23T02:30:11;23.42;;;14.07;;
60060;SDS011;45933;51.336;12.612;2024-03-23T02:32:36;17.53;;;12.30;;
60060;SDS011;45933;51.336;12.612;2024-03-23T02:35:01;18.17;;;12.30;;
60060;SDS011;45933;51.336;12.612;2024-03-23T02:37:27;17.20;;;11.60;;
60060;SDS011;45933;51.336;12.612;2024-03-23T02:39:52;13.80;;;9.93;;
60060;SDS011;45933;51.336;12.612;2024-03-23T02:42:17;16.27;;;9.87;;
60060;SDS011;45933;51.336;12.612;2024-03-23T02:44:43;14.00;;;9.80;;
60060;SDS011;45933;51.336;12.612;2024-03-23T02:47:09;13.50;;;8.60;;
60060;SDS011;45933;51.336;12.612;2024-03-23T02:49:35;12.73;;;7.70;;
60060;SDS011;45933;51.336;12.612;2024-03-23T02:52:00;12.93;;;7.57;;
60060;SDS011;45933;51.336;12.612;2024-03-23T02:54:26;12.50;;;7.03;;
60060;SDS011;45933;51.336;12.612;2024-03-23T02:56:51;10.40;;;6.70;;
60060;SDS011;45933;51.336;12.612;2024-03-23T02:59:16;12.23;;;7.33;;
60060;SDS011;45933;51.336;12.612;2024-03-23T03:01:41;12.50;;;7.43;;
60060;SDS011;45933;51.336;12.612;2024-03-23T03:04:07;10.03;;;6.33;;
60060;SDS011;45933;51.336;12.612;2024-03-23T03:06:32;12.03;;;6.53;;
60060;SDS011;45933;51.336;12.612;2024-03-23T03:08:57;9.53;;;6.13;;
60060;SDS011;45933;51.336;12.612;2024-03-23T03:11:23;10.60;;;6.13;;
60060;SDS011;45933;51.336;12.612;2024-03-23T03:13:48;10.33;;;5.97;;
60060;SDS011;45933;51.336;12.612;2024-03-23T03:16:13;9.57;;;5.83;;
60060;SDS011;45933;51.336;12.612;2024-03-23T03:18:39;8.10;;;5.50;;
60060;SDS011;45933;51.336;12.612;2024-03-23T03:21:05;9.07;;;5.40;;
60060;SDS011;45933;51.336;12.612;2024-03-23T03:23:35;10.93;;;5.40;;
60060;SDS011;45933;51.336;12.612;2024-03-23T03:26:01;9.63;;;5.33;;
60060;SDS011;45933;51.336;12.612;2024-03-23T03:28:27;9.80;;;5.20;;
60060;SDS011;45933;51.336;12.612;2024-03-23T03:30:55;9.27;;;4.93;;
60060;SDS011;45933;51.336;12.612;2024-03-23T03:33:21;9.37;;;5.13;;
60060;SDS011;45933;51.336;12.612;2024-03-23T03:35:46;7.57;;;4.87;;
60060;SDS011;45933;51.336;12.612;2024-03-23T03:38:12;7.40;;;4.80;;
60060;SDS011;45933;51.336;12.612;2024-03-23T03:40:37;8.43;;;5.07;;
60060;SDS011;45933;51.336;12.612;2024-03-23T03:43:02;7.40;;;4.47;;
60060;SDS011;45933;51.336;12.612;2024-03-23T03:45:28;8.93;;;4.00;;
60060;SDS011;45933;51.336;12.612;2024-03-23T03:47:53;6.47;;;4.43;;
60060;SDS011;45933;51.336;12.612;2024-03-23T03:50:19;8.17;;;4.20;;
60060;SDS011;45933;51.336;12.612;2024-03-23T03:52:45;6.70;;;4.10;;
60060;SDS011;45933;51.336;12.612;2024-03-23T03:55:13;6.90;;;4.17;;
60060;SDS011;45933;51.336;12.612;2024-03-23T03:57:39;7.07;;;3.73;;
60060;SDS011;45933;51.336;12.612;2024-03-23T04:00:05;7.30;;;3.87;;
60060;SDS011;45933;51.336;12.612;2024-03-23T04:02:31;8.53;;;4.00;;
60060;SDS011;45933;51.336;12.612;2024-03-23T04:04:56;5.50;;;3.60;;
60060;SDS011;45933;51.336;12.612;2024-03-23T04:07:22;6.97;;;3.90;;
60060;SDS011;45933;51.336;12.612;2024-03-23T04:09:48;8.20;;;4.10;;
60060;SDS011;45933;51.336;12.612;2024-03-23T04:12:13;7.93;;;3.67;;
60060;SDS011;45933;51.336;12.612;2024-03-23T04:14:38;5.00;;;3.70;;
60060;SDS011;45933;51.336;12.612;2024-03-23T04:17:04;5.47;;;3.43;;
60060;SDS011;45933;51.336;12.612;2024-03-23T04:19:29;7.63;;;3.80;;
60060;SDS011;45933;51.336;12.612;2024-03-23T04:21:54;5.37;;;3.53;;
60060;SDS011;45933;51.336;12.612;2024-03-23T04:24:19;6.17;;;3.07;;
60060;SDS011;45933;51.336;12.612;2024-03-23T04:26:47;5.97;;;3.70;;
60060;SDS011;45933;51.336;12.612;2024-03-23T04:29:12;6.93;;;3.60;;
60060;SDS011;45933;51.336;12.612;2024-03-23T04:31:37;6.67;;;3.97;;
60060;SDS011;45933;51.336;12.612;2024-03-23T04:34:04;5.20;;;3.30;;
60060;SDS011;45933;51.336;12.612;2024-03-23T04:36:29;5.23;;;3.13;;
60060;SDS011;45933;51.336;12.612;2024-03-23T04:38:55;6.13;;;3.23;;
60060;SDS011;45933;51.336;12.612;2024-03-23T04:41:21;6.27;;;3.40;;
60060;SDS011;45933;51.336;12.612;2024-03-23T04:43:47;6.13;;;3.73;;
60060;SDS011;45933;51.336;12.612;2024-03-23T04:46:12;8.03;;;3.37;;
60060;SDS011;45933;51.336;12.612;2024-03-23T04:48:37;6.73;;;3.87;;
60060;SDS011;45933;51.336;12.612;2024-03-23T04:51:03;7.57;;;3.70;;
60060;SDS011;45933;51.336;12.612;2024-03-23T04:53:29;7.17;;;3.57;;
60060;SDS011;45933;51.336;12.612;2024-03-23T04:55:57;7.43;;;3.40;;
60060;SDS011;45933;51.336;12.612;2024-03-23T04:58:24;6.63;;;3.00;;
60060;SDS011;45933;51.336;12.612;2024-03-23T05:00:53;7.83;;;3.50;;
60060;SDS011;45933;51.336;12.612;2024-03-23T05:03:20;6.00;;;2.80;;
60060;SDS011;45933;51.336;12.612;2024-03-23T05:05:47;4.97;;;2.93;;
60060;SDS011;45933;51.336;12.612;2024-03-23T05:08:14;5.80;;;3.37;;
60060;SDS011;45933;51.336;12.612;2024-03-23T05:10:40;9.53;;;3.10;;
60060;SDS011;45933;51.336;12.612;2024-03-23T05:13:06;5.83;;;3.30;;
60060;SDS011;45933;51.336;12.612;2024-03-23T05:15:31;5.43;;;3.20;;
60060;SDS011;45933;51.336;12.612;2024-03-23T05:17:57;5.93;;;3.30;;
60060;SDS011;45933;51.336;12.612;2024-03-23T05:20:22;5.73;;;3.10;;
60060;SDS011;45933;51.336;12.612;2024-03-23T05:22:47;5.10;;;3.30;;
60060;SDS011;45933;51.336;12.612;2024-03-23T05:25:13;5.00;;;3.10;;
60060;SDS011;45933;51.336;12.612;2024-03-23T05:27:38;4.97;;;3.17;;
60060;SDS011;45933;51.336;12.612;2024-03-23T05:30:03;6.00;;;3.40;;
60060;SDS011;45933;51.336;12.612;2024-03-23T05:32:30;5.03;;;2.90;;
60060;SDS011;45933;51.336;12.612;2024-03-23T05:34:56;5.30;;;3.50;;
60060;SDS011;45933;51.336;12.612;2024-03-23T05:37:22;7.47;;;3.67;;
60060;SDS011;45933;51.336;12.612;2024-03-23T05:39:47;6.17;;;3.27;;
60060;SDS011;45933;51.336;12.612;2024-03-23T05:42:14;7.70;;;3.77;;
60060;SDS011;45933;51.336;12.612;2024-03-23T05:44:44;10.77;;;4.53;;
60060;SDS011;45933;51.336;12.612;2024-03-23T05:47:10;5.70;;;3.60;;
60060;SDS011;45933;51.336;12.612;2024-03-23T05:49:35;8.23;;;4.17;;
60060;SDS011;45933;51.336;12.612;2024-03-23T05:52:00;8.33;;;4.47;;
60060;SDS011;45933;51.336;12.612;2024-03-23T05:54:28;7.17;;;4.57;;
60060;SDS011;45933;51.336;12.612;2024-03-23T05:56:56;7.47;;;4.37;;
60060;SDS011;45933;51.336;12.612;2024-03-23T05:59:22;8.00;;;4.60;;
60060;SDS011;45933;51.336;12.612;2024-03-23T06:01:47;7.70;;;4.57;;
60060;SDS011;45933;51.336;12.612;2024-03-23T06:04:12;8.00;;;4.50;;
60060;SDS011;45933;51.336;12.612;2024-03-23T06:06:38;7.70;;;5.10;;
60060;SDS011;45933;51.336;12.612;2024-03-23T06:09:04;8.27;;;5.70;;
60060;SDS011;45933;51.336;12.612;2024-03-23T06:11:29;8.50;;;4.97;;
60060;SDS011;45933;51.336;12.612;2024-03-23T06:13:55;10.10;;;5.50;;
60060;SDS011;45933;51.336;12.612;2024-03-23T06:16:20;11.10;;;5.07;;
60060;SDS011;45933;51.336;12.612;2024-03-23T06:18:48;9.07;;;5.57;;
60060;SDS011;45933;51.336;12.612;2024-03-23T06:21:14;8.63;;;5.60;;
60060;SDS011;45933;51.336;12.612;2024-03-23T06:23:40;8.40;;;5.27;;
60060;SDS011;45933;51.336;12.612;2024-03-23T06:26:13;11.47;;;5.13;;
60060;SDS011;45933;51.336;12.612;2024-03-23T06:28:38;7.50;;;5.27;;
60060;SDS011;45933;51.336;12.612;2024-03-23T06:31:03;9.47;;;6.23;;
60060;SDS011;45933;51.336;12.612;2024-03-23T06:33:34;10.67;;;5.87;;
60060;SDS011;45933;51.336;12.612;2024-03-23T06:35:59;9.47;;;6.17;;
60060;SDS011;45933;51.336;12.612;2024-03-23T06:38:24;13.20;;;6.63;;
60060;SDS011;45933;51.336;12.612;2024-03-23T06:40:50;10.67;;;6.77;;
60060;SDS011;45933;51.336;12.612;2024-03-23T06:43:17;11.23;;;6.90;;
60060;SDS011;45933;51.336;12.612;2024-03-23T06:45:43;10.90;;;6.90;;
60060;SDS011;45933;51.336;12.612;2024-03-23T06:48:08;12.30;;;7.27;;
60060;SDS011;45933;51.336;12.612;2024-03-23T06:50:34;10.80;;;6.57;;
60060;SDS011;45933;51.336;12.612;2024-03-23T06:52:59;10.50;;;6.80;;
60060;SDS011;45933;51.336;12.612;2024-03-23T06:55:26;10.47;;;6.77;;
60060;SDS011;45933;51.336;12.612;2024-03-23T06:57:52;10.37;;;6.13;;
60060;SDS011;45933;51.336;12.612;2024-03-23T07:00:17;12.70;;;7.13;;
60060;SDS011;45933;51.336;12.612;2024-03-23T07:02:43;12.80;;;7.10;;
60060;SDS011;45933;51.336;12.612;2024-03-23T07:05:09;10.40;;;7.13;;
60060;SDS011;45933;51.336;12.612;2024-03-23T07:07:35;11.90;;;6.67;;
60060;SDS011;45933;51.336;12.612;2024-03-23T07:10:01;13.50;;;6.73;;
60060;SDS011;45933;51.336;12.612;2024-03-23T07:12:26;15.83;;;7.47;;
60060;SDS011;45933;51.336;12.612;2024-03-23T07:14:51;14.43;;;7.30;;
60060;SDS011;45933;51.336;12.612;2024-03-23T07:17:16;12.47;;;7.47;;
60060;SDS011;45933;51.336;12.612;2024-03-23T07:19:43;11.57;;;7.10;;
60060;SDS011;45933;51.336;12.612;2024-03-23T07:22:08;12.77;;;7.43;;
60060;SDS011;45933;51.336;12.612;2024-03-23T07:24:34;10.13;;;7.07;;
60060;SDS011;45933;51.336;12.612;2024-03-23T07:26:59;11.40;;;7.57;;
60060;SDS011;45933;51.336;12.612;2024-03-23T07:29:24;11.70;;;7.37;;
60060;SDS011;45933;51.336;12.612;2024-03-23T07:31:50;10.60;;;6.77;;
60060;SDS011;45933;51.336;12.612;2024-03-23T07:34:15;10.43;;;6.63;;
60060;SDS011;45933;51.336;12.612;2024-03-23T07:36:41;12.57;;;7.70;;
60060;SDS011;45933;51.336;12.612;2024-03-23T07:39:06;12.87;;;8.33;;
60060;SDS011;45933;51.336;12.612;2024-03-23T07:41:32;13.50;;;7.13;;
60060;SDS011;45933;51.336;12.612;2024-03-23T07:43:58;9.87;;;6.00;;
60060;SDS011;45933;51.336;12.612;2024-03-23T07:46:23;10.40;;;6.37;;
60060;SDS011;45933;51.336;12.612;2024-03-23T07:48:50;10.87;;;5.40;;
60060;SDS011;45933;51.336;12.612;2024-03-23T07:51:16;12.33;;;5.93;;
60060;SDS011;45933;51.336;12.612;2024-03-23T07:53:43;13.03;;;5.70;;
60060;SDS011;45933;51.336;12.612;2024-03-23T07:56:13;11.53;;;5.50;;
60060;SDS011;45933;51.336;12.612;2024-03-23T07:58:43;10.87;;;4.50;;
60060;SDS011;45933;51.336;12.612;2024-03-23T08:01:10;13.13;;;4.37;;
60060;SDS011;45933;51.336;12.612;2024-03-23T08:03:37;11.33;;;4.67;;
60060;SDS011;45933;51.336;12.612;2024-03-23T08:06:12;7.63;;;3.20;;
60060;SDS011;45933;51.336;12.612;2024-03-23T08:08:39;8.07;;;2.73;;
60060;SDS011;45933;51.336;12.612;2024-03-23T08:11:06;9.70;;;3.53;;
60060;SDS011;45933;51.336;12.612;2024-03-23T08:13:31;5.77;;;2.13;;
60060;SDS011;45933;51.336;12.612;2024-03-23T08:15:57;5.87;;;1.83;;
60060;SDS011;45933;51.336;12.612;2024-03-23T08:18:24;4.37;;;1.60;;
60060;SDS011;45933;51.336;12.612;2024-03-23T08:20:56;5.60;;;3.77;;
60060;SDS011;45933;51.336;12.612;2024-03-23T08:23:25;8.13;;;3.57;;
60060;SDS011;45933;51.336;12.612;2024-03-23T08:25:51;8.20;;;3.80;;
60060;SDS011;45933;51.336;12.612;2024-03-23T08:28:17;4.30;;;2.97;;
60060;SDS011;45933;51.336;12.612;2024-03-23T08:30:42;3.10;;;1.90;;
60060;SDS011;45933;51.336;12.612;2024-03-23T08:33:07;2.80;;;1.00;;
60060;SDS011;45933;51.336;12.612;2024-03-23T08:35:33;1.63;;;0.80;;
60060;SDS011;45933;51.336;12.612;2024-03-23T08:37:59;1.87;;;0.70;;
60060;SDS011;45933;51.336;12.612;2024-03-23T08:40:25;2.40;;;0.80;;
60060;SDS011;45933;51.336;12.612;2024-03-23T08:42:50;1.93;;;0.90;;
60060;SDS011;45933;51.336;12.612;2024-03-23T08:45:15;1.57;;;0.60;;
60060;SDS011;45933;51.336;12.612;2024-03-23T08:47:40;1.90;;;0.53;;
60060;SDS011;45933;51.336;12.612;2024-03-23T08:50:06;2.57;;;0.60;;
60060;SDS011;45933;51.336;12.612;2024-03-23T08:52:31;1.53;;;0.50;;
60060;SDS011;45933;51.336;12.612;2024-03-23T08:54:56;3.17;;;0.70;;
60060;SDS011;45933;51.336;12.612;2024-03-23T08:57:23;1.90;;;0.70;;
60060;SDS011;45933;51.336;12.612;2024-03-23T08:59:48;1.40;;;0.70;;
60060;SDS011;45933;51.336;12.612;2024-03-23T09:02:13;2.03;;;0.70;;
60060;SDS011;45933;51.336;12.612;2024-03-23T09:04:38;1.80;;;0.80;;
60060;SDS011;45933;51.336;12.612;2024-03-23T09:07:04;2.70;;;0.80;;
60060;SDS011;45933;51.336;12.612;2024-03-23T09:09:29;2.60;;;1.33;;
60060;SDS011;45933;51.336;12.612;2024-03-23T09:11:55;2.83;;;0.60;;
60060;SDS011;45933;51.336;12.612;2024-03-23T09:14:22;2.47;;;0.60;;
60060;SDS011;45933;51.336;12.612;2024-03-23T09:16:49;3.90;;;0.70;;
60060;SDS011;45933;51.336;12.612;2024-03-23T09:19:15;1.43;;;0.60;;
60060;SDS011;45933;51.336;12.612;2024-03-23T09:21:41;1.23;;;0.70;;
60060;SDS011;45933;51.336;12.612;2024-03-23T09:24:07;2.07;;;0.63;;
60060;SDS011;45933;51.336;12.612;2024-03-23T09:26:32;1.23;;;0.53;;
60060;SDS011;45933;51.336;12.612;2024-03-23T09:28:57;2.00;;;0.83;;
60060;SDS011;45933;51.336;12.612;2024-03-23T09:31:22;1.63;;;0.80;;
60060;SDS011;45933;51.336;12.612;2024-03-23T09:33:48;1.43;;;0.50;;
60060;SDS011;45933;51.336;12.612;2024-03-23T09:36:13;0.80;;;0.60;;
60060;SDS011;45933;51.336;12.612;2024-03-23T09:38:38;2.07;;;0.63;;
60060;SDS011;45933;51.336;12.612;2024-03-23T09:41:07;1.30;;;0.63;;
60060;SDS011;45933;51.336;12.612;2024-03-23T09:43:33;2.20;;;0.90;;
60060;SDS011;45933;51.336;12.612;2024-03-23T09:45:59;1.90;;;0.80;;
60060;SDS011;45933;51.336;12.612;2024-03-23T09:48:24;1.23;;;0.80;;
60060;SDS011;45933;51.336;12.612;2024-03-23T09:50:49;2.40;;;1.03;;
60060;SDS011;45933;51.336;12.612;2024-03-23T09:53:15;1.97;;;0.80;;
60060;SDS011;45933;51.336;12.612;2024-03-23T09:55:40;1.77;;;0.83;;
60060;SDS011;45933;51.336;12.612;2024-03-23T09:58:07;1.83;;;0.90;;
60060;SDS011;45933;51.336;12.612;2024-03-23T10:00:33;2.10;;;0.90;;
60060;SDS011;45933;51.336;12.612;2024-03-23T10:02:59;3.43;;;1.00;;
60060;SDS011;45933;51.336;12.612;2024-03-23T10:05:29;2.70;;;0.93;;
60060;SDS011;45933;51.336;12.612;2024-03-23T10:07:57;2.67;;;0.90;;
60060;SDS011;45933;51.336;12.612;2024-03-23T10:10:22;2.73;;;1.00;;
60060;SDS011;45933;51.336;12.612;2024-03-23T10:12:50;3.93;;;1.20;;
60060;SDS011;45933;51.336;12.612;2024-03-23T10:15:17;1.67;;;1.07;;
60060;SDS011;45933;51.336;12.612;2024-03-23T10:17:45;3.27;;;1.17;;
60060;SDS011;45933;51.336;12.612;2024-03-23T10:20:10;2.53;;;1.20;;
60060;SDS011;45933;51.336;12.612;2024-03-23T10:22:39;3.40;;;1.37;;
60060;SDS011;45933;51.336;12.612;2024-03-23T10:25:08;2.77;;;1.07;;
60060;SDS011;45933;51.336;12.612;2024-03-23T10:27:34;1.53;;;0.93;;
60060;SDS011;45933;51.336;12.612;2024-03-23T10:32:34;1.77;;;0.83;;
60060;SDS011;45933;51.336;12.612;2024-03-23T10:35:19;2.43;;;0.80;;
60060;SDS011;45933;51.336;12.612;2024-03-23T10:37:48;1.43;;;0.83;;
60060;SDS011;45933;51.336;12.612;2024-03-23T10:40:16;0.60;;;0.60;;
60060;SDS011;45933;51.336;12.612;2024-03-23T10:42:43;0.83;;;0.67;;
60060;SDS011;45933;51.336;12.612;2024-03-23T10:45:09;1.40;;;0.70;;
60060;SDS011;45933;51.336;12.612;2024-03-23T10:47:35;0.93;;;0.60;;
60060;SDS011;45933;51.336;12.612;2024-03-23T10:50:02;1.00;;;0.67;;
60060;SDS011;45933;51.336;12.612;2024-03-23T10:52:28;0.93;;;0.60;;
60060;SDS011;45933;51.336;12.612;2024-03-23T10:54:54;1.70;;;0.70;;
60060;SDS011;45933;51.336;12.612;2024-03-23T10:57:21;2.87;;;0.77;;
60060;SDS011;45933;51.336;12.612;2024-03-23T10:59:50;0.70;;;0.70;;
60060;SDS011;45933;51.336;12.612;2024-03-23T11:02:20;1.57;;;0.90;;
60060;SDS011;45933;51.336;12.612;2024-03-23T11:04:46;1.10;;;0.80;;
60060;SDS011;45933;51.336;12.612;2024-03-23T11:09:49;1.57;;;1.10;;
60060;SDS011;45933;51.336;12.612;2024-03-23T11:14:53;2.10;;;2.00;;
60060;SDS011;45933;51.336;12.612;2024-03-23T11:17:22;2.13;;;1.93;;
60060;SDS011;45933;51.336;12.612;2024-03-23T11:19:55;2.47;;;2.27;;
60060;SDS011;45933;51.336;12.612;2024-03-23T11:25:21;3.20;;;2.90;;
60060;SDS011;45933;51.336;12.612;2024-03-23T11:27:50;3.17;;;2.40;;
60060;SDS011;45933;51.336;12.612;2024-03-23T11:30:19;4.37;;;2.63;;
60060;SDS011;45933;51.336;12.612;2024-03-23T11:32:53;2.23;;;2.03;;
60060;SDS011;45933;51.336;12.612;2024-03-23T11:35:29;4.77;;;2.40;;
60060;SDS011;45933;51.336;12.612;2024-03-23T11:38:05;2.93;;;2.10;;
60060;SDS011;45933;51.336;12.612;2024-03-23T11:40:46;3.17;;;2.00;;
60060;SDS011;45933;51.336;12.612;2024-03-23T11:43:14;4.20;;;2.37;;
60060;SDS011;45933;51.336;12.612;2024-03-23T11:45:42;3.37;;;2.30;;
60060;SDS011;45933;51.336;12.612;2024-03-23T11:48:12;2.17;;;1.90;;
60060;SDS011;45933;51.336;12.612;2024-03-23T11:50:44;3.87;;;2.53;;
60060;SDS011;45933;51.336;12.612;2024-03-23T11:55:47;3.63;;;1.93;;
60060;SDS011;45933;51.336;12.612;2024-03-23T11:58:14;4.77;;;1.90;;
60060;SDS011;45933;51.336;12.612;2024-03-23T12:00:40;6.03;;;2.30;;
60060;SDS011;45933;51.336;12.612;2024-03-23T12:03:06;4.63;;;1.80;;
60060;SDS011;45933;51.336;12.612;2024-03-23T12:05:32;5.07;;;2.20;;
60060;SDS011;45933;51.336;12.612;2024-03-23T12:08:17;5.60;;;2.27;;
60060;SDS011;45933;51.336;12.612;2024-03-23T12:10:47;6.13;;;2.20;;
60060;SDS011;45933;51.336;12.612;2024-03-23T12:13:20;6.10;;;2.08;;
60060;SDS011;45933;51.336;12.612;2024-03-23T12:15:47;6.37;;;2.53;;
60060;SDS011;45933;51.336;12.612;2024-03-23T12:18:14;5.97;;;2.10;;
60060;SDS011;45933;51.336;12.612;2024-03-23T12:20:39;5.70;;;1.77;;
60060;SDS011;45933;51.336;12.612;2024-03-23T12:23:06;7.95;;;3.72;;
60060;SDS011;45933;51.336;12.612;2024-03-23T12:25:40;9.18;;;3.40;;
60060;SDS011;45933;51.336;12.612;2024-03-23T12:28:06;7.97;;;2.30;;
60060;SDS011;45933;51.336;12.612;2024-03-23T12:30:36;7.13;;;2.10;;
60060;SDS011;45933;51.336;12.612;2024-03-23T12:33:04;6.43;;;1.70;;
60060;SDS011;45933;51.336;12.612;2024-03-23T12:35:31;7.80;;;1.88;;
60060;SDS011;45933;51.336;12.612;2024-03-23T12:37:57;6.43;;;1.70;;
60060;SDS011;45933;51.336;12.612;2024-03-23T12:40:22;7.45;;;2.05;;
60060;SDS011;45933;51.336;12.612;2024-03-23T12:42:48;5.65;;;2.00;;
60060;SDS011;45933;51.336;12.612;2024-03-23T12:45:13;6.00;;;1.67;;
60060;SDS011;45933;51.336;12.612;2024-03-23T12:47:38;6.85;;;1.73;;
60060;SDS011;45933;51.336;12.612;2024-03-23T12:50:04;5.13;;;1.50;;
60060;SDS011;45933;51.336;12.612;2024-03-23T12:52:30;5.78;;;2.00;;
60060;SDS011;45933;51.336;12.612;2024-03-23T12:54:56;5.80;;;2.25;;
60060;SDS011;45933;51.336;12.612;2024-03-23T12:57:22;4.53;;;1.77;;
60060;SDS011;45933;51.336;12.612;2024-03-23T12:59:54;4.72;;;1.80;;
60060;SDS011;45933;51.336;12.612;2024-03-23T13:02:19;6.25;;;1.73;;
60060;SDS011;45933;51.336;12.612;2024-03-23T13:04:54;6.13;;;2.10;;
60060;SDS011;45933;51.336;12.612;2024-03-23T13:07:20;6.68;;;2.25;;
60060;SDS011;45933;51.336;12.612;2024-03-23T13:09:47;4.25;;;1.83;;
60060;SDS011;45933;51.336;12.612;2024-03-23T13:12:12;5.07;;;2.38;;
60060;SDS011;45933;51.336;12.612;2024-03-23T13:14:38;3.55;;;1.83;;
60060;SDS011;45933;51.336;12.612;2024-03-23T13:17:04;3.95;;;1.77;;
60060;SDS011;45933;51.336;12.612;2024-03-23T13:19:29;3.75;;;1.88;;
60060;SDS011;45933;51.336;12.612;2024-03-23T13:21:55;4.68;;;1.90;;
60060;SDS011;45933;51.336;12.612;2024-03-23T13:24:25;7.05;;;2.35;;
60060;SDS011;45933;51.336;12.612;2024-03-23T13:26:51;4.53;;;2.10;;
60060;SDS011;45933;51.336;12.612;2024-03-23T13:29:17;3.00;;;1.98;;
60060;SDS011;45933;51.336;12.612;2024-03-23T13:31:43;6.47;;;2.33;;
60060;SDS011;45933;51.336;12.612;2024-03-23T13:34:09;6.30;;;2.58;;
60060;SDS011;45933;51.336;12.612;2024-03-23T13:36:34;6.03;;;2.63;;
60060;SDS011;45933;51.336;12.612;2024-03-23T13:39:01;4.88;;;2.60;;
60060;SDS011;45933;51.336;12.612;2024-03-23T13:41:27;7.65;;;3.10;;
60060;SDS011;45933;51.336;12.612;2024-03-23T13:43:53;6.32;;;2.55;;
60060;SDS011;45933;51.336;12.612;2024-03-23T13:46:18;3.85;;;2.13;;
60060;SDS011;45933;51.336;12.612;2024-03-23T13:48:43;11.20;;;2.53;;
60060;SDS011;45933;51.336;12.612;2024-03-23T13:51:08;5.97;;;2.53;;
60060;SDS011;45933;51.336;12.612;2024-03-23T13:53:34;5.63;;;2.35;;
60060;SDS011;45933;51.336;12.612;2024-03-23T13:55:59;5.03;;;2.28;;
60060;SDS011;45933;51.336;12.612;2024-03-23T13:58:24;10.18;;;2.63;;
60060;SDS011;45933;51.336;12.612;2024-03-23T14:00:52;3.40;;;1.70;;
60060;SDS011;45933;51.336;12.612;2024-03-23T14:03:18;6.22;;;2.38;;
60060;SDS011;45933;51.336;12.612;2024-03-23T14:05:43;5.18;;;2.03;;
60060;SDS011;45933;51.336;12.612;2024-03-23T14:08:10;5.95;;;2.40;;
60060;SDS011;45933;51.336;12.612;2024-03-23T14:10:36;7.55;;;2.78;;
60060;SDS011;45933;51.336;12.612;2024-03-23T14:13:05;9.02;;;2.65;;
60060;SDS011;45933;51.336;12.612;2024-03-23T14:15:30;4.72;;;2.65;;
60060;SDS011;45933;51.336;12.612;2024-03-23T14:17:55;6.80;;;3.70;;
60060;SDS011;45933;51.336;12.612;2024-03-23T14:20:21;6.00;;;3.15;;
60060;SDS011;45933;51.336;12.612;2024-03-23T14:22:47;7.18;;;2.90;;
60060;SDS011;45933;51.336;12.612;2024-03-23T14:25:13;4.27;;;2.53;;
60060;SDS011;45933;51.336;12.612;2024-03-23T14:27:38;7.10;;;3.23;;
60060;SDS011;45933;51.336;12.612;2024-03-23T14:30:04;5.13;;;2.57;;
60060;SDS011;45933;51.336;12.612;2024-03-23T14:32:30;5.47;;;4.10;;
60060;SDS011;45933;51.336;12.612;2024-03-23T14:34:58;8.00;;;3.50;;
60060;SDS011;45933;51.336;12.612;2024-03-23T14:37:24;8.00;;;3.77;;
60060;SDS011;45933;51.336;12.612;2024-03-23T14:39:49;8.03;;;4.20;;
60060;SDS011;45933;51.336;12.612;2024-03-23T14:42:15;7.17;;;4.47;;
60060;SDS011;45933;51.336;12.612;2024-03-23T14:44:40;9.10;;;4.30;;
60060;SDS011;45933;51.336;12.612;2024-03-23T14:47:07;9.23;;;4.77;;
60060;SDS011;45933;51.336;12.612;2024-03-23T14:49:32;9.03;;;4.57;;
60060;SDS011;45933;51.336;12.612;2024-03-23T14:51:58;6.47;;;3.20;;
60060;SDS011;45933;51.336;12.612;2024-03-23T14:54:23;4.57;;;2.40;;
60060;SDS011;45933;51.336;12.612;2024-03-23T14:56:49;5.27;;;2.60;;
60060;SDS011;45933;51.336;12.612;2024-03-23T14:59:14;5.17;;;2.57;;
60060;SDS011;45933;51.336;12.612;2024-03-23T15:01:40;4.50;;;1.90;;
60060;SDS011;45933;51.336;12.612;2024-03-23T15:04:06;5.13;;;2.20;;
60060;SDS011;45933;51.336;12.612;2024-03-23T15:06:31;6.07;;;3.23;;
60060;SDS011;45933;51.336;12.612;2024-03-23T15:08:58;7.83;;;3.10;;
60060;SDS011;45933;51.336;12.612;2024-03-23T15:11:23;4.97;;;3.03;;
60060;SDS011;45933;51.336;12.612;2024-03-23T15:13:49;5.53;;;2.60;;
60060;SDS011;45933;51.336;12.612;2024-03-23T15:16:16;5.03;;;2.40;;
60060;SDS011;45933;51.336;12.612;2024-03-23T15:18:45;4.33;;;2.50;;
60060;SDS011;45933;51.336;12.612;2024-03-23T15:21:10;3.57;;;2.97;;
60060;SDS011;45933;51.336;12.612;2024-03-23T15:23:36;3.53;;;2.43;;
60060;SDS011;45933;51.336;12.612;2024-03-23T15:26:02;4.10;;;2.40;;
60060;SDS011;45933;51.336;12.612;2024-03-23T15:28:29;3.93;;;2.20;;
60060;SDS011;45933;51.336;12.612;2024-03-23T15:31:19;2.53;;;1.80;;